createdAt,value
2018-02-20T00:02:18.613Z,101443.05
2018-02-20T00:07:20.192Z,101436.52
2018-02-20T00:12:22.533Z,101440.26
2018-02-20T00:17:24.098Z,101438.38
2018-02-20T00:22:26.432Z,101439.06
2018-02-20T00:27:28.037Z,101435.91
2018-02-20T00:32:29.383Z,101437.88
2018-02-20T00:37:30.954Z,101433.34
2018-02-20T00:42:32.531Z,101430.66
2018-02-20T00:47:34.045Z,101426.63
2018-02-20T00:52:35.652Z,101427.50
2018-02-20T00:57:37.186Z,101422.43
2018-02-20T01:02:38.738Z,101417.70
2018-02-20T01:07:40.251Z,101413.42
2018-02-20T01:12:42.531Z,101407.70
2018-02-20T01:17:43.980Z,101404.53
2018-02-20T01:22:45.499Z,101412.08
2018-02-20T01:27:46.933Z,101409.95
2018-02-20T01:32:49.230Z,101407.27
2018-02-20T01:37:50.733Z,101415.42
2018-02-20T01:42:52.309Z,101422.20
2018-02-20T01:47:53.876Z,101431.14
2018-02-20T01:52:55.282Z,101429.77
2018-02-20T01:57:56.739Z,101428.30
2018-02-20T02:02:58.295Z,101439.00
2018-02-20T02:08:00.565Z,101435.91
2018-02-20T02:13:01.951Z,101436.84
2018-02-20T02:18:03.525Z,101444.53
2018-02-20T02:23:04.912Z,101444.91
2018-02-20T02:28:06.360Z,101443.94
2018-02-20T02:33:07.889Z,101440.75
2018-02-20T02:38:10.112Z,101436.47
2018-02-20T02:43:11.665Z,101437.02
2018-02-20T02:48:13.087Z,101432.66
2018-02-20T02:53:23.090Z,101439.16
2018-02-20T02:58:25.361Z,101428.67
2018-02-20T03:03:26.895Z,101432.66
2018-02-20T03:08:28.329Z,101417.41
2018-02-20T03:13:29.885Z,101442.63
2018-02-20T03:18:31.461Z,101439.67
2018-02-20T03:23:33.768Z,101450.58
2018-02-20T03:28:35.278Z,101438.31
2018-02-20T03:33:37.413Z,101439.72
2018-02-20T03:38:38.841Z,101439.48
2018-02-20T03:43:40.167Z,101435.50
2018-02-20T03:48:42.381Z,101434.25
2018-02-20T03:53:44.504Z,101440.11
2018-02-20T03:58:45.954Z,101433.96
2018-02-20T04:03:47.357Z,101439.77
2018-02-20T04:08:49.500Z,101455.39
2018-02-20T04:13:50.932Z,101443.05
2018-02-20T04:18:52.376Z,101446.88
2018-02-20T04:23:53.958Z,101441.58
2018-02-20T04:28:56.191Z,101439.45
2018-02-20T04:33:57.765Z,101436.98
2018-02-20T04:38:59.245Z,101433.59
2018-02-20T04:44:01.543Z,101452.27
2018-02-20T04:49:03.891Z,101454.51
2018-02-20T04:54:05.428Z,101455.00
2018-02-20T04:59:06.978Z,101444.91
2018-02-20T05:04:08.542Z,101462.52
2018-02-20T05:09:10.026Z,101476.03
2018-02-20T05:14:11.595Z,101470.05
2018-02-20T05:19:13.150Z,101475.51
2018-02-20T05:24:14.632Z,101461.75
2018-02-20T05:29:16.947Z,101479.41
2018-02-20T05:34:19.307Z,101465.83
2018-02-20T05:39:20.844Z,101461.94
2018-02-20T05:44:23.211Z,101464.45
2018-02-20T05:49:25.855Z,101467.81
2018-02-20T05:54:27.420Z,101479.05
2018-02-20T05:59:28.966Z,101473.72
2018-02-20T06:04:31.371Z,101478.19
2018-02-20T06:09:32.921Z,101485.85
2018-02-20T06:14:35.102Z,101492.20
2018-02-20T06:19:38.998Z,101498.55
2018-02-20T06:24:41.001Z,101497.78
2018-02-20T06:29:42.567Z,101504.59
2018-02-20T06:34:44.096Z,101500.38
2018-02-20T06:39:45.690Z,101509.97
2018-02-20T06:44:47.260Z,101511.50
2018-02-20T06:49:48.801Z,101507.05
2018-02-20T06:54:50.417Z,101516.20
2018-02-20T06:59:52.735Z,101513.38
2018-02-20T07:04:54.252Z,101519.13
2018-02-20T07:09:56.717Z,101520.35
2018-02-20T07:14:58.300Z,101521.29
2018-02-20T07:19:59.867Z,101523.00
2018-02-20T07:25:01.355Z,101522.64
2018-02-20T07:30:02.795Z,101533.91
2018-02-20T07:35:04.801Z,101528.33
2018-02-20T07:40:06.987Z,101537.83
2018-02-20T07:45:08.560Z,101537.73
2018-02-20T07:50:10.124Z,101536.29
2018-02-20T07:55:11.702Z,101535.05
2018-02-20T08:00:13.267Z,101537.05
2018-02-20T08:05:14.806Z,101539.69
2018-02-20T08:10:17.119Z,101540.81
2018-02-20T08:15:18.861Z,101541.70
2018-02-20T08:20:20.394Z,101542.00
2018-02-20T08:25:21.947Z,101538.33
2018-02-20T08:30:23.415Z,101538.78
2018-02-20T08:35:24.779Z,101536.27
2018-02-20T08:40:26.954Z,101528.73
2018-02-20T08:45:28.313Z,101529.86
2018-02-20T08:50:29.886Z,101527.23
2018-02-20T08:55:32.154Z,101518.33
2018-02-20T09:00:33.708Z,101524.18
2018-02-20T09:05:35.262Z,101519.21
2018-02-20T09:10:36.823Z,101519.62
2018-02-20T09:15:38.208Z,101517.34
2018-02-20T09:20:39.551Z,101511.09
2018-02-20T09:25:41.649Z,101510.51
2018-02-20T09:30:43.711Z,101517.65
2018-02-20T09:35:45.102Z,101515.84
2018-02-20T09:40:46.447Z,101513.29
2018-02-20T09:45:48.523Z,101523.39
2018-02-20T09:50:49.963Z,101518.30
2018-02-20T09:55:51.330Z,101515.19
2018-02-20T10:00:52.724Z,101523.14
2018-02-20T10:05:54.865Z,101525.24
2018-02-20T10:10:56.243Z,101530.45
2018-02-20T10:15:57.619Z,101524.50
2018-02-20T10:20:59.736Z,101525.44
2018-02-20T10:26:01.849Z,101526.33
2018-02-20T10:31:03.202Z,101533.58
2018-02-20T10:36:04.564Z,101526.38
2018-02-20T10:41:05.920Z,101526.35
2018-02-20T10:46:07.273Z,101524.65
2018-02-20T10:51:08.624Z,101531.20
2018-02-20T10:56:09.959Z,101526.47
2018-02-20T11:01:11.299Z,101528.17
2018-02-20T11:06:12.740Z,101526.02
2018-02-20T11:11:14.129Z,101515.64
2018-02-20T11:16:15.510Z,101518.27
2018-02-20T11:21:16.916Z,101515.64
2018-02-20T11:26:18.996Z,101520.82
2018-02-20T11:31:20.323Z,101522.57
2018-02-20T11:36:21.655Z,101512.56
2018-02-20T11:41:23.030Z,101521.64
2018-02-20T11:46:24.387Z,101523.36
2018-02-20T11:51:26.500Z,101519.92
2018-02-20T11:56:28.583Z,101515.13
2018-02-20T12:01:29.972Z,101514.73
2018-02-20T12:06:31.344Z,101518.63
2018-02-20T12:11:32.716Z,101519.39
2018-02-20T12:16:34.232Z,101512.38
2018-02-20T12:21:35.588Z,101514.08
2018-02-20T12:26:36.978Z,101505.79
2018-02-20T12:31:38.307Z,101499.68
2018-02-20T12:36:39.652Z,101508.86
2018-02-20T12:41:41.084Z,101510.62
2018-02-20T12:46:42.402Z,101505.70
2018-02-20T12:51:43.773Z,101511.18
2018-02-20T12:56:45.123Z,101493.17
2018-02-20T13:01:46.468Z,101506.11
2018-02-20T13:06:48.547Z,101508.36
2018-02-20T13:11:49.922Z,101505.32
2018-02-20T13:16:51.304Z,101508.95
2018-02-20T13:21:52.671Z,101518.03
2018-02-20T13:26:54.044Z,101517.06
2018-02-20T13:31:55.402Z,101519.52
2018-02-20T13:36:56.766Z,101524.27
2018-02-20T13:41:58.133Z,101527.58
2018-02-20T13:46:59.522Z,101524.55
2018-02-20T13:52:00.924Z,101533.98
2018-02-20T13:57:02.280Z,101523.64
2018-02-20T14:02:04.395Z,101535.38
2018-02-20T14:07:06.504Z,101524.59
2018-02-20T14:12:08.621Z,101527.95
2018-02-20T14:17:09.948Z,101523.34
2018-02-20T14:22:11.317Z,101525.06
2018-02-20T14:27:12.716Z,101520.00
2018-02-20T14:32:14.065Z,101516.09
2018-02-20T14:37:15.447Z,101489.47
2018-02-20T14:42:17.598Z,101528.09
2018-02-20T14:47:18.980Z,101522.95
2018-02-20T14:52:20.364Z,101529.80
2018-02-20T14:57:21.822Z,101531.56
2018-02-20T15:02:23.205Z,101518.47
2018-02-20T15:07:25.390Z,101519.70
2018-02-20T15:12:26.765Z,101522.59
2018-02-20T15:17:28.173Z,101534.16
2018-02-20T15:22:29.561Z,101534.22
2018-02-20T15:27:30.955Z,101542.88
2018-02-20T15:32:32.377Z,101541.13
2018-02-20T15:37:33.791Z,101540.67
2018-02-20T15:42:35.954Z,101546.27
2018-02-20T15:47:37.331Z,101543.65
2018-02-20T15:52:38.759Z,101551.53
2018-02-20T15:57:40.156Z,101552.81
2018-02-20T16:02:41.570Z,101557.20
2018-02-20T16:07:42.909Z,101570.59
2018-02-20T16:12:44.291Z,101579.25
2018-02-20T16:17:45.644Z,101582.30
2018-02-20T16:22:47.052Z,101582.30
2018-02-20T16:27:48.415Z,101588.34
2018-02-20T16:32:50.532Z,101592.64
2018-02-20T16:37:51.904Z,101601.70
2018-02-20T16:42:54.049Z,101594.73
2018-02-20T16:47:55.410Z,101609.46
2018-02-20T16:52:56.751Z,101616.70
2018-02-20T16:57:58.251Z,101620.66
2018-02-20T17:02:59.635Z,101618.89
2018-02-20T17:08:00.980Z,101629.59
2018-02-20T17:13:03.095Z,101637.45
2018-02-20T17:18:04.481Z,101639.59
2018-02-20T17:23:05.905Z,101657.34
2018-02-20T17:28:07.365Z,101661.57
2018-02-20T17:33:08.788Z,101663.41
2018-02-20T17:38:10.177Z,101672.12
2018-02-20T17:43:11.543Z,101675.53
2018-02-20T17:48:12.960Z,101678.05
2018-02-20T17:53:14.325Z,101688.09
2018-02-20T17:58:15.695Z,101698.05
2018-02-20T18:03:17.797Z,101705.02
2018-02-20T18:08:19.263Z,101660.61
2018-02-20T18:13:20.576Z,101717.36
2018-02-20T18:18:22.644Z,101719.06
2018-02-20T18:23:24.010Z,101714.31
2018-02-20T18:28:25.375Z,101732.02
2018-02-20T18:33:26.779Z,101747.63
2018-02-20T18:38:28.196Z,101749.45
2018-02-20T18:43:30.605Z,101765.28
2018-02-20T18:48:32.033Z,101766.17
2018-02-20T18:53:33.482Z,101770.81
2018-02-20T18:58:34.874Z,101769.86
2018-02-20T19:03:36.221Z,101779.47
2018-02-20T19:08:37.619Z,101785.14
2018-02-20T19:13:39.812Z,101793.84
2018-02-20T19:18:41.537Z,101792.63
2018-02-20T19:23:42.942Z,101794.69
2018-02-20T19:28:44.280Z,101797.19
2018-02-20T19:33:45.714Z,101803.25
2018-02-20T19:38:47.123Z,101809.27
2018-02-20T19:43:48.526Z,101810.45
2018-02-20T19:48:49.956Z,101805.47
2018-02-20T19:53:51.336Z,101809.85
2018-02-20T19:58:52.838Z,101809.69
2018-02-20T20:03:54.213Z,101810.55
2018-02-20T20:08:55.680Z,101823.77
2018-02-20T20:13:57.040Z,101827.67
2018-02-20T20:18:59.121Z,101830.61
2018-02-20T20:24:00.451Z,101837.05
2018-02-20T20:29:01.863Z,101833.16
2018-02-20T20:34:03.332Z,101826.59
2018-02-20T20:39:04.744Z,101845.84
2018-02-20T20:44:06.184Z,101848.91
2018-02-20T20:49:07.527Z,101854.05
2018-02-20T20:54:08.892Z,101856.96
2018-02-20T20:59:10.364Z,101852.75
2018-02-20T21:04:11.784Z,101861.01
2018-02-20T21:09:13.296Z,101861.94
2018-02-20T21:14:14.667Z,101860.67
2018-02-20T21:19:16.013Z,101868.13
2018-02-20T21:24:17.632Z,101877.22
2018-02-20T21:29:19.238Z,101868.98
2018-02-20T21:34:20.816Z,101884.05
2018-02-20T21:39:22.919Z,101888.35
2018-02-20T21:44:24.301Z,101895.11
2018-02-20T21:49:26.417Z,101902.27
2018-02-20T21:54:27.844Z,101906.42
2018-02-20T21:59:29.286Z,101919.36
2018-02-20T22:04:30.620Z,101929.39
2018-02-20T22:09:31.976Z,101927.97
2018-02-20T22:14:33.532Z,101929.84
2018-02-20T22:19:34.871Z,101935.37
2018-02-20T22:24:36.988Z,101938.06
2018-02-20T22:29:39.052Z,101931.98
2018-02-20T22:34:40.402Z,101934.21
2018-02-20T22:39:41.986Z,101940.98
2018-02-20T22:44:43.345Z,101958.59
2018-02-20T22:49:44.673Z,101986.53
2018-02-20T22:54:46.049Z,101976.05
2018-02-20T22:59:47.519Z,101979.88
2018-02-20T23:04:48.860Z,101990.44
2018-02-20T23:09:50.225Z,101994.11
2018-02-20T23:14:52.292Z,101998.03
2018-02-20T23:19:53.647Z,101997.46
2018-02-20T23:24:55.014Z,101992.58
2018-02-20T23:29:56.356Z,101986.52
2018-02-20T23:34:57.704Z,101987.93
2018-02-20T23:39:59.170Z,101991.92
2018-02-20T23:45:01.235Z,102004.35
2018-02-20T23:50:02.581Z,102009.36
2018-02-20T23:55:04.024Z,102022.09
